Saint-Charles-Sur-Richelieu, Canada
Current Conditions -  °F | °C
As of 12:00 PM on Thursday 27 Nov 2014 (Local Time) from CYHU Reporting Station
Scattered Clouds Scattered Clouds  
Wind Chill: -2°   Ceiling: Unl
Heat Index: -2°   Visibility: 9mi
Dew Point: -9°   Wind: 0mph
Humidity: 59%   Direction: NA
Pressure: 30.04"   Gusts: NA
Location:  45.68°N, 73.18°W
Report Text: CYHU 271700Z AUTO 00000KT 9SM SCT033 M02/M09 A3004 RMK SLP174
Loading
Personal Weather Stations






























Interactive Weather Map New forecast layout! Learn more

10-Day Weather Forecast

Advertisements
Track Severe Weather on mobile